createdAt,value
2022-09-23T00:01:03.409Z,4.13
2022-09-23T00:04:46.780Z,3.35
2022-09-23T00:08:29.652Z,3.33
2022-09-23T00:12:11.381Z,3.80
2022-09-23T00:15:53.176Z,3.40
2022-09-23T00:19:35.231Z,2.47
2022-09-23T00:23:16.962Z,2.30
2022-09-23T00:27:00.068Z,1.95
2022-09-23T00:30:42.069Z,2.00
2022-09-23T00:34:23.862Z,2.00
2022-09-23T00:38:05.586Z,1.83
2022-09-23T00:41:47.379Z,2.10
2022-09-23T00:45:29.915Z,2.15
2022-09-23T00:49:20.518Z,2.15
2022-09-23T00:53:07.651Z,2.40
2022-09-23T00:56:49.542Z,2.10
2022-09-23T01:00:31.483Z,2.70
2022-09-23T01:04:14.739Z,2.50
2022-09-23T01:07:58.884Z,2.75
2022-09-23T01:11:45.424Z,2.72
2022-09-23T01:15:53.288Z,2.90
2022-09-23T01:20:13.834Z,3.10
2022-09-23T01:24:16.662Z,3.15
2022-09-23T01:28:08.367Z,3.13
2022-09-23T01:32:03.400Z,3.25
2022-09-23T01:36:08.639Z,3.03
2022-09-23T01:40:14.235Z,3.00
2022-09-23T01:44:14.508Z,2.65
2022-09-23T01:48:21.071Z,2.67
2022-09-23T01:52:19.467Z,2.58
2022-09-23T01:56:06.998Z,2.58
2022-09-23T01:59:55.800Z,2.67
2022-09-23T02:03:52.754Z,2.65
2022-09-23T02:07:46.157Z,2.55
2022-09-23T02:11:29.022Z,2.67
2022-09-23T02:15:15.637Z,2.63
2022-09-23T02:19:05.485Z,2.90
2022-09-23T02:23:06.168Z,2.80
2022-09-23T02:26:58.634Z,2.30
2022-09-23T02:30:49.738Z,2.70
2022-09-23T02:34:44.638Z,2.42
2022-09-23T02:38:33.693Z,2.72
2022-09-23T02:42:22.271Z,2.75
2022-09-23T02:46:04.942Z,2.72
2022-09-23T02:49:47.032Z,2.60
2022-09-23T02:53:33.415Z,2.15
2022-09-23T02:57:15.218Z,2.20
2022-09-23T03:01:19.030Z,2.35
2022-09-23T03:05:03.888Z,2.20
2022-09-23T03:08:57.602Z,2.40
2022-09-23T03:12:58.014Z,2.38
2022-09-23T03:17:09.573Z,2.40
2022-09-23T03:21:03.207Z,2.63
2022-09-23T03:24:49.664Z,2.60
2022-09-23T03:28:37.301Z,2.70
2022-09-23T03:32:23.054Z,2.70
2022-09-23T03:36:27.565Z,2.60
2022-09-23T03:40:21.105Z,2.60
2022-09-23T03:44:03.730Z,2.47
2022-09-23T03:47:46.305Z,2.67
2022-09-23T03:51:28.036Z,2.25
2022-09-23T03:55:11.038Z,2.72
2022-09-23T03:58:52.908Z,2.47
2022-09-23T04:02:34.795Z,2.42
2022-09-23T04:06:16.900Z,2.72
2022-09-23T04:09:58.981Z,2.50
2022-09-23T04:13:40.821Z,2.78
2022-09-23T04:17:22.659Z,2.42
2022-09-23T04:21:04.492Z,2.67
2022-09-23T04:24:46.241Z,3.05
2022-09-23T04:28:27.955Z,2.70
2022-09-23T04:32:10.191Z,2.78
2022-09-23T04:35:52.301Z,2.67
2022-09-23T04:39:33.985Z,3.08
2022-09-23T04:43:16.482Z,2.92
2022-09-23T04:46:58.509Z,2.88
2022-09-23T04:50:40.633Z,2.97
2022-09-23T04:54:22.324Z,4.00
2022-09-23T04:58:04.024Z,4.15
2022-09-23T05:01:45.853Z,4.00
2022-09-23T05:05:28.270Z,3.72
2022-09-23T05:09:15.452Z,3.13
2022-09-23T05:12:58.962Z,3.23
2022-09-23T05:16:40.909Z,2.92
2022-09-23T05:20:22.632Z,2.83
2022-09-23T05:24:04.838Z,3.00
2022-09-23T05:27:46.579Z,3.10
2022-09-23T05:31:30.210Z,3.40
2022-09-23T05:35:12.110Z,3.45
2022-09-23T05:38:56.517Z,3.47
2022-09-23T05:42:38.264Z,3.70
2022-09-23T05:46:25.529Z,3.95
2022-09-23T05:50:08.115Z,4.37
2022-09-23T05:53:52.565Z,4.10
2022-09-23T05:57:34.298Z,4.78
2022-09-23T06:01:18.402Z,4.93
2022-09-23T06:05:00.277Z,4.95
2022-09-23T06:08:42.637Z,4.90
2022-09-23T06:12:25.114Z,5.15
2022-09-23T06:16:09.053Z,5.22
2022-09-23T06:19:50.814Z,5.82
2022-09-23T06:23:33.476Z,5.90
2022-09-23T06:27:15.435Z,6.15
2022-09-23T06:30:58.454Z,7.35
2022-09-23T06:34:51.228Z,7.40
2022-09-23T06:38:34.264Z,7.43
2022-09-23T06:42:16.625Z,7.53
2022-09-23T06:46:01.169Z,8.00
2022-09-23T06:49:43.123Z,8.00
2022-09-23T06:53:25.564Z,8.30
2022-09-23T06:57:07.308Z,8.90
2022-09-23T07:00:49.118Z,9.10
2022-09-23T07:04:30.850Z,9.48
2022-09-23T07:08:12.518Z,10.10
2022-09-23T07:11:54.525Z,10.70
2022-09-23T07:15:36.473Z,11.48
2022-09-23T07:19:18.216Z,10.48
2022-09-23T07:22:59.980Z,11.77
2022-09-23T07:26:45.595Z,10.73
2022-09-23T07:30:27.566Z,11.55
2022-09-23T07:34:11.601Z,11.00
2022-09-23T07:37:53.669Z,10.65
2022-09-23T07:41:35.799Z,11.27
2022-09-23T07:45:18.226Z,10.52
2022-09-23T07:49:00.448Z,10.30
2022-09-23T07:52:42.842Z,9.77
2022-09-23T07:56:27.504Z,10.55
2022-09-23T08:00:10.129Z,10.27
2022-09-23T08:03:51.874Z,8.43
2022-09-23T08:07:36.666Z,8.65
2022-09-23T08:11:18.992Z,8.38
2022-09-23T08:15:00.856Z,7.80
2022-09-23T08:18:46.104Z,7.43
2022-09-23T08:22:27.833Z,7.25
2022-09-23T08:26:17.830Z,7.70
2022-09-23T08:30:01.357Z,7.30
2022-09-23T08:33:43.153Z,7.45
2022-09-23T08:37:24.884Z,7.32
2022-09-23T08:41:33.146Z,7.50
2022-09-23T08:45:25.616Z,7.72
2022-09-23T08:49:12.413Z,7.38
2022-09-23T08:53:01.815Z,7.20
2022-09-23T08:56:48.545Z,6.85
2022-09-23T09:01:03.356Z,6.25
2022-09-23T09:04:56.525Z,5.60
2022-09-23T09:08:39.490Z,5.90
2022-09-23T09:12:28.721Z,5.47
2022-09-23T09:16:13.443Z,4.70
2022-09-23T09:20:05.297Z,4.20
2022-09-23T09:23:58.461Z,4.10
2022-09-23T09:27:41.223Z,4.43
2022-09-23T09:31:44.523Z,4.47
2022-09-23T09:35:35.081Z,4.28
2022-09-23T09:39:17.255Z,4.07
2022-09-23T09:42:58.980Z,4.20
2022-09-23T09:46:52.570Z,4.90
2022-09-23T09:51:25.284Z,5.05
2022-09-23T09:55:12.802Z,4.18
2022-09-23T09:59:35.150Z,4.63
2022-09-23T10:03:48.911Z,4.32
2022-09-23T10:07:32.601Z,4.32
2022-09-23T10:11:17.106Z,4.63
2022-09-23T10:14:59.042Z,4.07
2022-09-23T10:18:46.569Z,4.43
2022-09-23T10:22:33.657Z,4.28
2022-09-23T10:26:18.513Z,5.20
2022-09-23T10:30:03.590Z,4.85
2022-09-23T10:33:50.759Z,5.03
2022-09-23T10:37:32.555Z,4.47
2022-09-23T10:42:00.707Z,4.40
2022-09-23T10:46:07.564Z,4.28
2022-09-23T10:50:01.286Z,3.92
2022-09-23T10:54:12.133Z,3.60
2022-09-23T10:58:31.257Z,3.97
2022-09-23T11:06:50.209Z,3.65
2022-09-23T11:10:59.161Z,3.78
2022-09-23T11:15:00.113Z,3.25
2022-09-23T11:18:49.701Z,2.90
2022-09-23T11:22:53.139Z,2.67
2022-09-23T11:27:16.833Z,2.97
2022-09-23T11:31:22.340Z,2.78
2022-09-23T11:35:29.436Z,2.60
2022-09-23T11:39:28.990Z,2.50
2022-09-23T11:43:24.942Z,2.22
2022-09-23T11:47:13.976Z,2.45
2022-09-23T11:51:00.963Z,2.10
2022-09-23T11:55:04.892Z,2.00
2022-09-23T11:59:29.565Z,2.30
2022-09-23T12:03:18.491Z,3.17
2022-09-23T12:07:14.679Z,2.50
2022-09-23T12:11:24.042Z,2.22
2022-09-23T12:15:25.766Z,5.65
2022-09-23T12:19:28.534Z,3.60
2022-09-23T12:23:41.041Z,3.45
2022-09-23T12:27:45.993Z,4.38
2022-09-23T12:31:33.921Z,1.80
2022-09-23T12:35:35.707Z,2.30
2022-09-23T12:39:26.681Z,2.13
2022-09-23T12:43:30.207Z,2.40
2022-09-23T12:47:15.013Z,2.10
2022-09-23T12:51:07.471Z,2.13
2022-09-23T12:54:51.159Z,2.20
2022-09-23T12:58:58.127Z,2.00
2022-09-23T13:03:11.549Z,2.03
2022-09-23T13:07:07.578Z,2.17
2022-09-23T13:10:52.339Z,1.80
2022-09-23T13:14:36.080Z,2.38
2022-09-23T13:18:20.627Z,2.72
2022-09-23T13:22:09.089Z,2.40
2022-09-23T13:26:02.835Z,2.17
2022-09-23T13:29:50.089Z,2.85
2022-09-23T13:33:47.291Z,2.20
2022-09-23T13:37:48.263Z,2.88
2022-09-23T13:41:30.026Z,1.80
2022-09-23T13:45:18.165Z,1.60
2022-09-23T13:48:59.935Z,2.55
2022-09-23T13:52:41.716Z,2.03
2022-09-23T13:56:25.261Z,1.80
2022-09-23T14:00:25.324Z,1.65
2022-09-23T14:04:24.387Z,1.40
2022-09-23T14:08:08.239Z,1.95
2022-09-23T14:11:51.655Z,1.30
2022-09-23T14:15:37.272Z,1.48
2022-09-23T14:19:22.108Z,1.63
2022-09-23T14:23:10.851Z,1.77
2022-09-23T14:26:56.564Z,1.33
2022-09-23T14:30:38.638Z,1.33
2022-09-23T14:34:45.016Z,1.70
2022-09-23T14:38:47.296Z,1.40
2022-09-23T14:42:38.360Z,1.60
2022-09-23T14:46:21.701Z,1.40
2022-09-23T14:50:22.253Z,1.88
2022-09-23T14:54:26.597Z,1.90
2022-09-23T14:58:16.578Z,1.35
2022-09-23T15:01:58.587Z,1.85
2022-09-23T15:05:44.328Z,1.70
2022-09-23T15:09:28.809Z,1.35
2022-09-23T15:13:21.231Z,1.73
2022-09-23T15:17:06.745Z,1.40
2022-09-23T15:20:54.155Z,31.13
2022-09-23T15:24:47.478Z,1.60
2022-09-23T15:28:29.195Z,1.40
2022-09-23T15:32:10.943Z,1.13
2022-09-23T15:35:52.680Z,1.30
2022-09-23T15:39:36.375Z,1.15
2022-09-23T15:43:24.127Z,1.27
2022-09-23T15:47:05.961Z,1.25
2022-09-23T15:50:48.251Z,1.10
2022-09-23T15:54:30.362Z,1.10
2022-09-23T15:58:12.166Z,1.17
2022-09-23T16:01:55.810Z,1.27
2022-09-23T16:05:39.416Z,1.20
2022-09-23T16:09:21.123Z,1.10
2022-09-23T16:13:06.254Z,1.33
2022-09-23T16:16:48.155Z,1.70
2022-09-23T16:20:30.572Z,1.35
2022-09-23T16:24:17.839Z,1.13
2022-09-23T16:31:41.451Z,1.58
2022-09-23T16:35:25.598Z,1.75
2022-09-23T16:39:11.037Z,1.75
2022-09-23T16:42:54.917Z,1.10
2022-09-23T16:46:36.852Z,1.88
2022-09-23T16:50:22.714Z,1.55
2022-09-23T16:54:10.275Z,1.80
2022-09-23T16:57:52.722Z,1.50
2022-09-23T17:01:53.362Z,1.98
2022-09-23T17:05:35.396Z,1.67
2022-09-23T17:09:26.225Z,1.90
2022-09-23T17:13:08.452Z,1.95
2022-09-23T17:16:50.416Z,2.30
2022-09-23T17:20:32.388Z,2.00
2022-09-23T17:24:14.119Z,2.40
2022-09-23T17:27:55.857Z,2.63
2022-09-23T17:31:39.126Z,2.20
2022-09-23T17:35:20.870Z,2.47
2022-09-23T17:39:02.798Z,2.17
2022-09-23T17:42:44.634Z,2.33
2022-09-23T17:46:28.856Z,2.67
2022-09-23T17:50:10.573Z,2.58
2022-09-23T17:53:52.287Z,2.40
2022-09-23T17:57:34.000Z,2.47
2022-09-23T18:01:22.372Z,2.30
2022-09-23T18:05:04.410Z,3.28
2022-09-23T18:08:48.357Z,2.85
2022-09-23T18:12:30.089Z,2.88
2022-09-23T18:16:11.905Z,2.63
2022-09-23T18:19:53.717Z,2.70
2022-09-23T18:23:37.262Z,2.60
2022-09-23T18:27:18.943Z,3.40
2022-09-23T18:31:00.702Z,3.22
2022-09-23T18:34:42.423Z,3.50
2022-09-23T18:38:24.154Z,4.10
2022-09-23T18:42:06.254Z,3.55
2022-09-23T18:46:00.835Z,3.50
2022-09-23T18:50:01.108Z,3.30
2022-09-23T18:53:43.891Z,3.50
2022-09-23T18:57:25.691Z,3.47
2022-09-23T19:01:09.779Z,2.67
2022-09-23T19:04:52.707Z,2.72
2022-09-23T19:08:35.183Z,2.70
2022-09-23T19:12:17.059Z,2.50
2022-09-23T19:16:10.945Z,2.28
2022-09-23T19:19:53.038Z,2.80
2022-09-23T19:23:35.109Z,3.10
2022-09-23T19:27:16.839Z,3.42
2022-09-23T19:31:08.261Z,3.25
2022-09-23T19:34:50.034Z,3.20
2022-09-23T19:38:32.590Z,2.80
2022-09-23T19:42:14.367Z,3.20
2022-09-23T19:45:56.306Z,4.30
2022-09-23T19:49:38.261Z,3.60
2022-09-23T19:53:20.162Z,3.03
2022-09-23T19:57:01.943Z,3.15
2022-09-23T20:00:43.706Z,3.53
2022-09-23T20:04:26.166Z,3.20
2022-09-23T20:08:07.899Z,3.33
2022-09-23T20:11:49.692Z,4.70
2022-09-23T20:15:31.378Z,4.10
2022-09-23T20:19:14.018Z,4.53
2022-09-23T20:22:55.826Z,4.15
2022-09-23T20:26:56.459Z,16.85
2022-09-23T20:30:39.065Z,9.57
2022-09-23T20:34:21.580Z,16.85
2022-09-23T20:38:07.849Z,4.88
2022-09-23T20:41:51.178Z,4.18
2022-09-23T20:45:32.991Z,5.75
2022-09-23T20:49:15.233Z,4.40
2022-09-23T20:52:57.597Z,4.35
2022-09-23T20:56:39.472Z,3.92
2022-09-23T21:00:21.328Z,4.13
2022-09-23T21:04:05.937Z,3.50
2022-09-23T21:07:47.845Z,3.90
2022-09-23T21:11:29.935Z,3.00
2022-09-23T21:15:11.932Z,3.38
2022-09-23T21:18:53.750Z,2.95
2022-09-23T21:22:36.089Z,3.15
2022-09-23T21:26:25.227Z,2.88
2022-09-23T21:30:07.526Z,3.05
2022-09-23T21:33:55.771Z,3.17
2022-09-23T21:37:37.575Z,3.10
2022-09-23T21:41:19.996Z,3.28
2022-09-23T21:45:03.441Z,3.78
2022-09-23T21:48:46.763Z,3.28
2022-09-23T21:52:28.455Z,3.55
2022-09-23T21:56:15.788Z,3.58
2022-09-23T22:00:01.812Z,4.13
2022-09-23T22:03:48.517Z,4.13
2022-09-23T22:07:30.256Z,4.03
2022-09-23T22:11:32.909Z,3.65
2022-09-23T22:15:14.751Z,3.55
2022-09-23T22:18:58.350Z,4.18
2022-09-23T22:22:40.066Z,3.30
2022-09-23T22:26:21.752Z,4.72
2022-09-23T22:30:21.974Z,4.75
2022-09-23T22:34:03.762Z,4.53
2022-09-23T22:37:45.914Z,4.30
2022-09-23T22:41:27.607Z,4.10
2022-09-23T22:45:10.799Z,4.15
2022-09-23T22:48:53.405Z,3.85
2022-09-23T22:52:35.762Z,4.60
2022-09-23T22:56:17.899Z,3.33
2022-09-23T22:59:59.648Z,3.88
2022-09-23T23:03:41.727Z,5.30
2022-09-23T23:07:24.676Z,5.55
2022-09-23T23:11:11.442Z,4.78
2022-09-23T23:14:53.204Z,4.60
2022-09-23T23:18:38.942Z,4.18
2022-09-23T23:22:20.655Z,3.70
2022-09-23T23:26:11.901Z,3.17
2022-09-23T23:29:54.082Z,2.40
2022-09-23T23:33:36.114Z,2.55
2022-09-23T23:37:20.879Z,2.85
2022-09-23T23:41:03.967Z,2.97
2022-09-23T23:44:45.812Z,2.90
2022-09-23T23:48:30.607Z,2.83
2022-09-23T23:52:12.365Z,3.72
2022-09-23T23:55:54.062Z,2.50
2022-09-23T23:59:35.792Z,2.30
